createdAt,value
2019-04-10T00:00:37.304Z,62.35
2019-04-10T00:03:06.774Z,62.29
2019-04-10T00:05:36.233Z,62.23
2019-04-10T00:08:06.232Z,62.27
2019-04-10T00:10:36.214Z,62.25
2019-04-10T00:13:06.653Z,62.24
2019-04-10T00:15:36.296Z,62.45
2019-04-10T00:18:07.349Z,62.39
2019-04-10T00:20:36.933Z,62.49
2019-04-10T00:23:06.757Z,62.50
2019-04-10T00:25:37.111Z,62.61
2019-04-10T00:28:08.003Z,62.82
2019-04-10T00:30:37.823Z,62.83
2019-04-10T00:33:08.227Z,62.69
2019-04-10T00:35:37.517Z,62.76
2019-04-10T00:38:07.160Z,62.61
2019-04-10T00:40:36.635Z,62.89
2019-04-10T00:43:06.634Z,63.71
2019-04-10T00:45:35.922Z,64.65
2019-04-10T00:48:05.835Z,64.78
2019-04-10T00:50:36.922Z,65.36
2019-04-10T00:53:06.491Z,65.93
2019-04-10T00:55:35.745Z,66.19
2019-04-10T00:58:05.818Z,67.00
2019-04-10T01:00:36.761Z,66.87
2019-04-10T01:03:07.431Z,67.17
2019-04-10T01:05:37.665Z,66.78
2019-04-10T01:08:07.002Z,66.98
2019-04-10T01:10:36.707Z,67.11
2019-04-10T01:13:06.188Z,67.80
2019-04-10T01:15:36.460Z,68.01
2019-04-10T01:18:06.758Z,68.03
2019-04-10T01:20:36.182Z,68.08
2019-04-10T01:23:05.795Z,69.22
2019-04-10T01:25:35.281Z,69.55
2019-04-10T01:28:04.721Z,71.62
2019-04-10T01:30:34.807Z,72.38
2019-04-10T01:33:04.115Z,73.83
2019-04-10T01:35:34.123Z,73.59
2019-04-10T01:38:05.897Z,73.61
2019-04-10T01:40:35.209Z,73.64
2019-04-10T01:43:12.241Z,74.11
2019-04-10T01:45:35.755Z,74.61
2019-04-10T01:48:05.946Z,74.23
2019-04-10T01:50:35.362Z,73.30
2019-04-10T01:53:05.606Z,72.74
2019-04-10T01:55:35.923Z,72.48
2019-04-10T01:58:06.750Z,72.92
2019-04-10T02:00:37.621Z,73.86
2019-04-10T02:03:06.869Z,73.91
2019-04-10T02:05:36.681Z,72.98
2019-04-10T02:08:09.112Z,72.94
2019-04-10T02:10:36.980Z,72.82
2019-04-10T02:13:07.333Z,72.75
2019-04-10T02:15:36.723Z,73.36
2019-04-10T02:18:05.953Z,72.60
2019-04-10T02:20:35.114Z,72.42
2019-04-10T02:23:04.304Z,71.89
2019-04-10T02:25:36.872Z,72.88
2019-04-10T02:28:06.948Z,72.01
2019-04-10T02:30:37.324Z,72.38
2019-04-10T02:33:08.436Z,72.88
2019-04-10T02:35:38.062Z,73.35
2019-04-10T02:38:29.183Z,73.96
2019-04-10T02:40:39.225Z,73.78
2019-04-10T02:43:10.289Z,72.87
2019-04-10T02:45:40.375Z,73.93
2019-04-10T02:48:12.149Z,73.82
2019-04-10T02:50:42.836Z,73.21
2019-04-10T02:53:13.079Z,73.94
2019-04-10T02:55:43.178Z,74.30
2019-04-10T02:58:14.119Z,74.28
2019-04-10T03:00:44.150Z,74.16
2019-04-10T03:03:13.937Z,74.30
2019-04-10T03:05:44.632Z,74.42
2019-04-10T03:08:15.861Z,73.82
2019-04-10T03:10:51.758Z,73.75
2019-04-10T03:13:17.770Z,73.88
2019-04-10T03:15:47.628Z,74.16
2019-04-10T03:18:17.151Z,74.11
2019-04-10T03:20:46.800Z,74.28
2019-04-10T03:23:17.565Z,74.13
2019-04-10T03:25:46.814Z,74.44
2019-04-10T03:28:16.668Z,74.52
2019-04-10T03:30:46.690Z,74.53
2019-04-10T03:33:31.157Z,74.39
2019-04-10T03:35:58.980Z,74.59
2019-04-10T03:38:28.321Z,73.85
2019-04-10T03:40:57.707Z,73.99
2019-04-10T03:43:27.872Z,73.79
2019-04-10T03:45:57.229Z,74.14
2019-04-10T03:48:27.171Z,73.55
2019-04-10T03:50:57.581Z,73.75
2019-04-10T03:53:27.384Z,73.41
2019-04-10T03:55:57.092Z,73.49
2019-04-10T03:58:27.320Z,73.74
2019-04-10T04:00:56.888Z,73.52
2019-04-10T04:03:26.792Z,73.90
2019-04-10T04:05:57.171Z,74.25
2019-04-10T04:08:27.719Z,74.59
2019-04-10T04:10:57.281Z,74.60
2019-04-10T04:13:26.534Z,73.39
2019-04-10T04:15:55.733Z,74.07
2019-04-10T04:18:24.976Z,74.30
2019-04-10T04:20:55.055Z,74.17
2019-04-10T04:23:24.311Z,74.37
2019-04-10T04:25:54.666Z,74.18
2019-04-10T04:28:23.877Z,74.28
2019-04-10T04:30:53.816Z,74.21
2019-04-10T04:33:23.324Z,74.08
2019-04-10T04:35:53.219Z,74.43
2019-04-10T04:38:23.538Z,74.91
2019-04-10T04:40:54.713Z,74.89
2019-04-10T04:43:25.029Z,74.06
2019-04-10T04:45:55.323Z,75.56
2019-04-10T04:48:24.662Z,76.09
2019-04-10T04:50:54.434Z,75.56
2019-04-10T04:53:23.711Z,74.79
2019-04-10T04:55:53.406Z,75.37
2019-04-10T04:58:22.770Z,75.05
2019-04-10T05:00:52.285Z,75.17
2019-04-10T05:03:22.737Z,75.70
2019-04-10T05:05:52.129Z,74.98
2019-04-10T05:08:21.767Z,75.01
2019-04-10T05:10:51.149Z,75.67
2019-04-10T05:13:20.260Z,76.19
2019-04-10T05:15:49.462Z,76.30
2019-04-10T05:18:19.049Z,76.41
2019-04-10T05:20:50.432Z,76.23
2019-04-10T05:23:19.163Z,76.42
2019-04-10T05:25:48.362Z,75.75
2019-04-10T05:28:17.526Z,74.56
2019-04-10T05:30:46.731Z,74.76
2019-04-10T05:33:16.213Z,75.30
2019-04-10T05:35:45.679Z,74.99
2019-04-10T05:38:14.889Z,74.91
2019-04-10T05:40:44.313Z,75.12
2019-04-10T05:43:13.713Z,74.56
2019-04-10T05:45:42.830Z,74.29
2019-04-10T05:48:12.057Z,73.67
2019-04-10T05:50:52.607Z,74.11
2019-04-10T05:53:12.124Z,73.82
2019-04-10T05:55:45.205Z,74.05
2019-04-10T05:58:15.463Z,74.58
2019-04-10T06:00:45.108Z,73.84
2019-04-10T06:03:14.551Z,73.59
2019-04-10T06:05:44.491Z,73.44
2019-04-10T06:08:14.034Z,73.92
2019-04-10T06:10:43.653Z,74.14
2019-04-10T06:13:13.049Z,73.62
2019-04-10T06:15:43.393Z,72.97
2019-04-10T06:18:13.880Z,72.72
2019-04-10T06:20:43.761Z,72.19
2019-04-10T06:23:12.840Z,70.80
2019-04-10T06:25:43.433Z,71.71
2019-04-10T06:28:12.991Z,70.67
2019-04-10T06:30:43.816Z,69.28
2019-04-10T06:33:12.989Z,68.96
2019-04-10T06:35:42.256Z,67.01
2019-04-10T06:38:11.398Z,67.00
2019-04-10T06:40:40.540Z,67.01
2019-04-10T06:43:09.917Z,66.19
2019-04-10T06:45:39.927Z,66.86
2019-04-10T06:48:09.306Z,66.11
2019-04-10T06:50:39.198Z,66.32
2019-04-10T06:53:08.571Z,66.06
2019-04-10T06:55:38.517Z,65.96
2019-04-10T06:58:07.965Z,64.42
2019-04-10T07:00:37.437Z,64.26
2019-04-10T07:03:06.604Z,64.08
2019-04-10T07:05:40.889Z,63.80
2019-04-10T07:08:14.448Z,63.29
2019-04-10T07:10:49.153Z,63.49
2019-04-10T07:13:10.828Z,63.54
2019-04-10T07:15:42.472Z,61.85
2019-04-10T07:18:15.220Z,61.68
2019-04-10T07:20:42.153Z,59.14
2019-04-10T07:23:14.559Z,59.52
2019-04-10T07:25:45.522Z,56.85
2019-04-10T07:28:14.365Z,57.28
2019-04-10T07:30:43.620Z,56.52
2019-04-10T07:33:16.537Z,55.70
2019-04-10T07:35:44.339Z,56.19
2019-04-10T07:38:13.964Z,55.43
2019-04-10T07:40:43.275Z,55.24
2019-04-10T07:43:13.301Z,55.11
2019-04-10T07:45:42.649Z,54.99
2019-04-10T07:48:12.879Z,53.17
2019-04-10T07:50:45.310Z,53.89
2019-04-10T07:53:13.097Z,53.66
2019-04-10T07:55:55.174Z,53.76
2019-04-10T07:58:13.293Z,53.67
2019-04-10T08:00:42.921Z,53.53
2019-04-10T08:03:12.517Z,51.75
2019-04-10T08:05:41.882Z,51.85
2019-04-10T08:08:11.199Z,51.69
2019-04-10T08:10:42.353Z,52.79
2019-04-10T08:13:12.149Z,52.62
2019-04-10T08:15:41.458Z,52.70
2019-04-10T08:18:10.618Z,52.44
2019-04-10T08:20:40.305Z,52.57
2019-04-10T08:23:10.185Z,51.75
2019-04-10T08:25:40.827Z,51.91
2019-04-10T08:28:11.242Z,52.28
2019-04-10T08:30:41.880Z,51.77
2019-04-10T08:33:11.964Z,51.95
2019-04-10T08:35:41.914Z,51.42
2019-04-10T08:38:11.344Z,51.08
2019-04-10T08:40:40.601Z,50.76
2019-04-10T08:43:09.684Z,50.34
2019-04-10T08:45:46.719Z,49.62
2019-04-10T08:48:10.043Z,49.43
2019-04-10T08:50:39.349Z,49.44
2019-04-10T08:53:09.546Z,48.42
2019-04-10T08:55:40.002Z,47.17
2019-04-10T08:58:10.347Z,46.73
2019-04-10T09:00:40.694Z,44.96
2019-04-10T09:03:10.804Z,45.39
2019-04-10T09:05:40.229Z,44.22
2019-04-10T09:08:09.423Z,43.03
2019-04-10T09:10:38.736Z,42.78
2019-04-10T09:13:08.374Z,42.41
2019-04-10T09:15:38.222Z,41.92
2019-04-10T09:18:08.554Z,41.20
2019-04-10T09:20:38.587Z,42.22
2019-04-10T09:23:20.207Z,44.14
2019-04-10T09:25:39.447Z,42.82
2019-04-10T09:28:08.893Z,41.60
2019-04-10T09:30:38.138Z,41.06
2019-04-10T09:33:16.955Z,39.60
2019-04-10T09:35:38.498Z,38.88
2019-04-10T09:38:07.741Z,38.58
2019-04-10T09:40:38.335Z,38.02
2019-04-10T09:43:07.670Z,37.30
2019-04-10T09:45:37.159Z,37.57
2019-04-10T09:48:06.527Z,36.40
2019-04-10T09:50:35.837Z,36.79
2019-04-10T09:53:05.256Z,34.61
2019-04-10T09:55:34.474Z,35.47
2019-04-10T09:58:03.674Z,36.83
2019-04-10T10:00:33.944Z,37.18
2019-04-10T10:03:03.547Z,38.03
2019-04-10T10:05:32.761Z,37.79
2019-04-10T10:08:02.213Z,38.18
2019-04-10T10:10:34.512Z,38.05
2019-04-10T10:13:03.329Z,38.47
2019-04-10T10:15:33.450Z,38.32
2019-04-10T10:18:03.381Z,39.46
2019-04-10T10:20:32.709Z,39.60
2019-04-10T10:23:01.986Z,39.04
2019-04-10T10:25:31.317Z,38.65
2019-04-10T10:28:00.442Z,39.06
2019-04-10T10:30:30.091Z,40.31
2019-04-10T10:32:59.421Z,41.25
2019-04-10T10:35:29.369Z,40.10
2019-04-10T10:37:59.010Z,39.35
2019-04-10T10:40:28.294Z,38.80
2019-04-10T10:42:58.162Z,37.57
2019-04-10T10:45:27.564Z,37.39
2019-04-10T10:47:56.904Z,37.81
2019-04-10T10:50:26.123Z,37.57
2019-04-10T10:52:55.617Z,35.46
2019-04-10T10:55:25.418Z,35.39
2019-04-10T10:57:55.453Z,34.75
2019-04-10T11:00:25.179Z,33.98
2019-04-10T11:02:54.651Z,34.66
2019-04-10T11:05:23.701Z,33.60
2019-04-10T11:07:53.099Z,33.22
2019-04-10T11:10:27.061Z,33.58
2019-04-10T11:12:55.177Z,32.47
2019-04-10T11:15:26.016Z,32.60
2019-04-10T11:17:55.398Z,32.53
2019-04-10T11:20:25.574Z,32.40
2019-04-10T11:22:55.827Z,31.57
2019-04-10T11:25:26.127Z,31.70
2019-04-10T11:27:56.466Z,30.87
2019-04-10T11:30:26.933Z,30.29
2019-04-10T11:32:56.417Z,29.87
2019-04-10T11:35:26.540Z,29.13
2019-04-10T11:37:59.194Z,29.15
2019-04-10T11:40:29.571Z,29.38
2019-04-10T11:43:01.765Z,29.69
2019-04-10T11:45:38.039Z,30.68
2019-04-10T11:48:02.299Z,31.98
2019-04-10T11:50:32.678Z,32.62
2019-04-10T11:53:02.752Z,32.84
2019-04-10T11:55:42.451Z,33.79
2019-04-10T11:58:03.037Z,34.25
2019-04-10T12:00:50.592Z,34.83
2019-04-10T12:03:17.508Z,34.34
2019-04-10T12:05:48.042Z,35.29
2019-04-10T12:08:36.255Z,35.22
2019-04-10T12:13:19.746Z,35.00
2019-04-10T12:15:50.380Z,34.48
2019-04-10T12:18:19.761Z,33.75
2019-04-10T12:20:49.329Z,33.32
2019-04-10T12:23:18.822Z,33.00
2019-04-10T12:25:49.271Z,32.28
2019-04-10T12:28:18.664Z,31.36
2019-04-10T12:30:47.986Z,30.54
2019-04-10T12:33:17.223Z,30.45
2019-04-10T12:35:46.421Z,29.43
2019-04-10T12:38:15.624Z,28.88
2019-04-10T12:40:44.843Z,28.76
2019-04-10T12:43:14.059Z,30.49
2019-04-10T12:45:44.181Z,30.89
2019-04-10T12:48:14.535Z,31.62
2019-04-10T12:50:44.000Z,30.92
2019-04-10T12:53:13.570Z,29.34
2019-04-10T12:55:43.737Z,28.03
2019-04-10T12:58:17.259Z,29.24
2019-04-10T13:00:44.586Z,28.54
2019-04-10T13:03:14.643Z,28.32
2019-04-10T13:05:45.244Z,25.99
2019-04-10T13:08:21.049Z,24.39
2019-04-10T13:10:45.858Z,25.58
2019-04-10T13:13:15.086Z,24.93
2019-04-10T13:15:45.568Z,23.26
2019-04-10T13:18:14.940Z,23.07
2019-04-10T13:20:44.247Z,24.51
2019-04-10T13:23:14.879Z,23.84
2019-04-10T13:25:55.379Z,24.68
2019-04-10T13:28:15.366Z,25.13
2019-04-10T13:30:52.413Z,25.35
2019-04-10T13:33:16.419Z,25.99
2019-04-10T13:35:46.296Z,24.30
2019-04-10T13:38:25.785Z,23.75
2019-04-10T13:40:48.018Z,22.69
2019-04-10T13:43:18.025Z,22.05
2019-04-10T13:45:48.617Z,21.96
2019-04-10T13:48:17.888Z,22.79
2019-04-10T13:50:47.176Z,23.05
2019-04-10T13:53:17.528Z,23.57
2019-04-10T13:55:46.845Z,23.20
2019-04-10T13:58:17.197Z,23.08
2019-04-10T14:00:47.139Z,22.61
2019-04-10T14:03:16.725Z,22.83
2019-04-10T14:05:47.625Z,23.60
2019-04-10T14:08:17.014Z,24.03
2019-04-10T14:10:46.816Z,24.16
2019-04-10T14:13:16.335Z,25.22
2019-04-10T14:15:46.382Z,25.24
2019-04-10T14:18:16.650Z,24.86
2019-04-10T14:20:46.028Z,24.79
2019-04-10T14:23:18.005Z,24.96
2019-04-10T14:25:52.060Z,25.10
2019-04-10T14:28:22.959Z,24.96
2019-04-10T14:30:53.744Z,26.64
2019-04-10T14:33:23.338Z,27.82
2019-04-10T14:35:53.671Z,28.12
2019-04-10T14:38:23.273Z,27.42
2019-04-10T14:40:53.534Z,26.64
2019-04-10T14:43:23.090Z,25.98
2019-04-10T14:45:52.321Z,25.57
2019-04-10T14:48:22.358Z,25.64
2019-04-10T14:50:51.661Z,25.67
2019-04-10T14:53:20.920Z,26.00
2019-04-10T14:55:50.131Z,26.18
2019-04-10T14:58:23.956Z,26.68
2019-04-10T15:00:50.961Z,27.00
2019-04-10T15:03:22.498Z,28.21
2019-04-10T15:05:54.470Z,28.23
2019-04-10T15:08:23.797Z,27.82
2019-04-10T15:10:53.279Z,27.66
2019-04-10T15:13:24.238Z,27.53
2019-04-10T15:15:53.623Z,27.34
2019-04-10T15:18:22.905Z,27.92
2019-04-10T15:20:52.321Z,28.10
2019-04-10T15:23:21.516Z,28.27
2019-04-10T15:25:51.237Z,28.78
2019-04-10T15:28:20.891Z,28.95
2019-04-10T15:30:50.804Z,28.78
2019-04-10T15:33:20.579Z,28.58
2019-04-10T15:35:49.872Z,28.78
2019-04-10T15:38:19.999Z,28.32
2019-04-10T15:40:50.321Z,28.16
2019-04-10T15:43:20.893Z,28.08
2019-04-10T15:45:50.491Z,27.90
2019-04-10T15:48:20.919Z,28.07
2019-04-10T15:50:50.246Z,27.86
2019-04-10T15:53:20.236Z,28.17
2019-04-10T15:55:49.683Z,28.65
2019-04-10T15:58:21.548Z,28.36
2019-04-10T16:00:51.743Z,28.23
2019-04-10T16:03:21.847Z,28.36
2019-04-10T16:05:51.412Z,28.34
2019-04-10T16:08:20.835Z,28.65
2019-04-10T16:11:07.910Z,28.81
2019-04-10T16:13:38.913Z,29.41
2019-04-10T16:16:19.125Z,29.97
2019-04-10T16:18:50.200Z,30.21
2019-04-10T16:21:20.334Z,30.40
2019-04-10T16:24:00.555Z,30.50
2019-04-10T16:26:32.157Z,30.87
2019-04-10T16:29:02.020Z,31.50
2019-04-10T16:31:31.886Z,31.85
2019-04-10T16:34:01.374Z,32.30
2019-04-10T16:36:30.595Z,32.46
2019-04-10T16:39:00.794Z,32.08
2019-04-10T16:41:31.165Z,32.47
2019-04-10T16:44:00.700Z,32.99
2019-04-10T16:46:29.970Z,33.37
2019-04-10T16:49:00.217Z,33.90
2019-04-10T16:51:29.553Z,34.26
2019-04-10T16:54:00.169Z,34.35
2019-04-10T16:56:29.804Z,34.63
2019-04-10T16:59:00.400Z,34.74
2019-04-10T17:01:30.961Z,35.10
2019-04-10T17:04:00.798Z,35.28
2019-04-10T17:06:30.437Z,35.49
2019-04-10T17:09:00.618Z,35.61
2019-04-10T17:11:30.790Z,35.78
2019-04-10T17:14:01.054Z,35.84
2019-04-10T17:16:31.277Z,36.13
2019-04-10T17:19:00.881Z,36.30
2019-04-10T17:21:31.127Z,36.48
2019-04-10T17:24:00.864Z,36.75
2019-04-10T17:26:31.011Z,37.22
2019-04-10T17:29:00.893Z,37.49
2019-04-10T17:31:30.787Z,37.67
2019-04-10T17:34:00.639Z,38.00
2019-04-10T17:36:30.046Z,37.90
2019-04-10T17:39:00.728Z,38.17
2019-04-10T17:41:31.307Z,38.21
2019-04-10T17:44:02.440Z,38.19
2019-04-10T17:46:31.538Z,38.32
2019-04-10T17:49:01.287Z,38.27
2019-04-10T17:51:30.586Z,38.52
2019-04-10T17:54:00.036Z,39.02
2019-04-10T17:56:30.475Z,39.08
2019-04-10T17:59:00.484Z,39.43
2019-04-10T18:01:30.025Z,39.45
2019-04-10T18:04:02.996Z,39.41
2019-04-10T18:06:31.131Z,39.30
2019-04-10T18:09:01.193Z,39.40
2019-04-10T18:11:30.617Z,39.58
2019-04-10T18:14:00.833Z,39.92
2019-04-10T18:16:31.303Z,40.21
2019-04-10T18:19:00.659Z,40.46
2019-04-10T18:21:30.871Z,40.50
2019-04-10T18:24:00.433Z,40.80
2019-04-10T18:26:31.869Z,41.08
2019-04-10T18:29:02.328Z,41.27
2019-04-10T18:31:32.615Z,41.72
2019-04-10T18:34:03.213Z,41.70
2019-04-10T18:36:33.199Z,41.76
2019-04-10T18:39:02.840Z,42.08
2019-04-10T18:41:32.220Z,42.04
2019-04-10T18:44:01.508Z,42.18
2019-04-10T18:46:31.286Z,42.57
2019-04-10T18:49:01.059Z,42.34
2019-04-10T18:51:30.302Z,42.41
2019-04-10T18:53:59.761Z,42.55
2019-04-10T18:56:29.281Z,42.82
2019-04-10T18:59:07.903Z,42.70
2019-04-10T19:01:43.154Z,42.90
2019-04-10T19:04:14.260Z,43.51
2019-04-10T19:06:49.706Z,43.83
2019-04-10T19:09:24.610Z,44.18
2019-04-10T19:11:50.609Z,44.20
2019-04-10T19:14:20.716Z,44.24
2019-04-10T19:16:50.266Z,44.43
2019-04-10T19:19:20.474Z,44.23
2019-04-10T19:21:50.091Z,44.05
2019-04-10T19:24:21.927Z,43.87
2019-04-10T19:26:51.888Z,43.52
2019-04-10T19:29:21.426Z,43.08
2019-04-10T19:31:52.731Z,42.91
2019-04-10T19:34:23.354Z,43.00
2019-04-10T19:36:54.349Z,43.06
2019-04-10T19:39:24.467Z,43.27
2019-04-10T19:41:55.322Z,43.23
2019-04-10T19:44:25.554Z,43.36
2019-04-10T19:46:56.333Z,43.48
2019-04-10T19:49:26.090Z,43.63
2019-04-10T19:51:56.038Z,43.77
2019-04-10T19:54:26.147Z,43.86
2019-04-10T19:56:55.728Z,44.01
2019-04-10T19:59:25.056Z,44.10
2019-04-10T20:01:54.810Z,44.35
2019-04-10T20:04:24.346Z,44.39
2019-04-10T20:06:54.439Z,44.65
2019-04-10T20:09:24.426Z,44.82
2019-04-10T20:11:56.924Z,45.12
2019-04-10T20:14:24.860Z,45.25
2019-04-10T20:16:53.993Z,45.08
2019-04-10T20:19:24.617Z,45.20
2019-04-10T20:21:54.521Z,45.36
2019-04-10T20:24:25.035Z,45.57
2019-04-10T20:26:54.474Z,45.77
2019-04-10T20:29:23.938Z,45.98
2019-04-10T20:31:55.359Z,46.24
2019-04-10T20:34:25.387Z,46.41
2019-04-10T20:36:55.395Z,46.51
2019-04-10T20:39:25.364Z,46.79
2019-04-10T20:41:56.683Z,46.93
2019-04-10T20:44:25.596Z,47.15
2019-04-10T20:46:55.025Z,46.84
2019-04-10T20:49:24.346Z,46.89
2019-04-10T20:51:53.728Z,47.10
2019-04-10T20:54:23.150Z,47.32
2019-04-10T20:56:52.760Z,47.50
2019-04-10T20:59:22.004Z,47.46
2019-04-10T21:01:51.459Z,47.77
2019-04-10T21:04:23.537Z,47.84
2019-04-10T21:06:52.977Z,47.84
2019-04-10T21:09:23.554Z,47.72
2019-04-10T21:12:02.665Z,48.05
2019-04-10T21:14:24.280Z,48.01
2019-04-10T21:16:53.520Z,48.41
2019-04-10T21:19:22.960Z,48.51
2019-04-10T21:21:52.244Z,48.43
2019-04-10T21:24:21.677Z,48.43
2019-04-10T21:26:51.038Z,48.42
2019-04-10T21:29:38.411Z,48.56
2019-04-10T21:32:09.511Z,48.92
2019-04-10T21:34:40.508Z,48.96
2019-04-10T21:37:10.172Z,49.10
2019-04-10T21:39:39.582Z,49.84
2019-04-10T21:42:18.184Z,50.48
2019-04-10T21:44:40.569Z,50.90
2019-04-10T21:47:11.071Z,50.48
2019-04-10T21:49:42.129Z,51.43
2019-04-10T21:52:11.434Z,51.90
2019-04-10T21:54:49.770Z,52.84
2019-04-10T21:57:11.729Z,53.12
2019-04-10T21:59:40.925Z,53.28
2019-04-10T22:02:11.124Z,53.42
2019-04-10T22:04:41.401Z,53.45
2019-04-10T22:07:12.271Z,53.00
2019-04-10T22:09:43.272Z,53.35
2019-04-10T22:12:27.658Z,54.01
2019-04-10T22:14:51.244Z,54.15
2019-04-10T22:17:20.563Z,54.19
2019-04-10T22:19:50.747Z,53.71
2019-04-10T22:22:20.368Z,54.22
2019-04-10T22:24:50.567Z,54.61
2019-04-10T22:27:20.038Z,54.00
2019-04-10T22:29:49.358Z,54.74
2019-04-10T22:32:19.253Z,54.60
2019-04-10T22:34:48.549Z,55.04
2019-04-10T22:37:17.816Z,54.89
2019-04-10T22:39:48.193Z,55.16
2019-04-10T22:42:17.774Z,55.16
2019-04-10T22:44:48.230Z,55.03
2019-04-10T22:47:17.582Z,55.11
2019-04-10T22:49:47.219Z,54.93
2019-04-10T22:52:17.670Z,54.97
2019-04-10T22:54:46.967Z,54.92
2019-04-10T22:57:16.252Z,54.71
2019-04-10T22:59:46.689Z,54.69
2019-04-10T23:02:16.558Z,54.58
2019-04-10T23:04:47.011Z,54.63
2019-04-10T23:07:17.571Z,54.71
2019-04-10T23:09:47.170Z,54.82
2019-04-10T23:12:16.281Z,54.79
2019-04-10T23:14:45.436Z,55.02
2019-04-10T23:17:14.829Z,54.83
2019-04-10T23:19:44.573Z,54.83
2019-04-10T23:22:13.851Z,55.03
2019-04-10T23:24:43.490Z,55.51
2019-04-10T23:27:13.387Z,56.18
2019-04-10T23:29:42.728Z,56.80
2019-04-10T23:32:11.868Z,56.70
2019-04-10T23:34:41.054Z,57.35
2019-04-10T23:37:10.903Z,57.97
2019-04-10T23:39:40.603Z,58.30
2019-04-10T23:42:10.830Z,58.24
2019-04-10T23:44:40.793Z,58.33
2019-04-10T23:47:10.238Z,58.66
2019-04-10T23:49:39.550Z,58.51
2019-04-10T23:52:09.688Z,58.83
2019-04-10T23:54:39.483Z,59.05
2019-04-10T23:57:10.013Z,59.28
2019-04-10T23:59:39.780Z,59.27
